createdAt,value
2017-09-21T00:03:02.522Z,22.10
2017-09-21T00:08:05.734Z,23.37
2017-09-21T00:13:09.000Z,23.53
2017-09-21T00:18:12.984Z,24.93
2017-09-21T00:23:16.181Z,23.33
2017-09-21T00:28:19.395Z,25.55
2017-09-21T00:33:22.585Z,24.70
2017-09-21T00:38:25.785Z,25.83
2017-09-21T00:43:28.992Z,24.80
2017-09-21T00:48:32.233Z,25.37
2017-09-21T00:53:35.416Z,24.93
2017-09-21T00:58:38.622Z,21.93
2017-09-21T01:03:41.827Z,25.30
2017-09-21T01:08:45.020Z,24.33
2017-09-21T01:13:48.244Z,23.27
2017-09-21T01:18:51.411Z,23.20
2017-09-21T01:23:54.595Z,21.20
2017-09-21T01:28:57.776Z,25.53
2017-09-21T01:34:00.999Z,22.03
2017-09-21T01:39:04.200Z,24.90
2017-09-21T01:44:07.399Z,22.97
2017-09-21T01:49:10.582Z,22.23
2017-09-21T01:54:13.791Z,22.23
2017-09-21T01:59:16.983Z,22.93
2017-09-21T02:04:20.173Z,20.27
2017-09-21T02:09:23.392Z,19.53
2017-09-21T02:14:26.590Z,19.07
2017-09-21T02:19:29.824Z,18.75
2017-09-21T02:24:33.033Z,18.63
2017-09-21T02:29:36.297Z,15.80
2017-09-21T02:34:39.506Z,14.03
2017-09-21T02:39:43.470Z,17.47
2017-09-21T02:44:46.711Z,17.80
2017-09-21T02:49:49.937Z,15.60
2017-09-21T02:54:53.901Z,17.47
2017-09-21T02:59:57.120Z,16.00
2017-09-21T03:05:00.346Z,17.73
2017-09-21T03:10:03.555Z,18.07
2017-09-21T03:15:06.743Z,16.00
2017-09-21T03:20:09.955Z,17.10
2017-09-21T03:25:13.144Z,16.63
2017-09-21T03:30:16.365Z,19.17
2017-09-21T03:35:19.594Z,23.03
2017-09-21T03:40:22.814Z,18.20
2017-09-21T03:45:26.011Z,21.00
2017-09-21T03:50:29.225Z,20.17
2017-09-21T03:55:32.439Z,22.30
2017-09-21T04:00:36.416Z,20.73
2017-09-21T04:05:39.614Z,21.37
2017-09-21T04:10:42.878Z,26.27
2017-09-21T04:15:46.851Z,25.57
2017-09-21T04:20:50.087Z,23.60
2017-09-21T04:25:54.233Z,21.97
2017-09-21T04:30:57.439Z,23.63
2017-09-21T04:36:00.649Z,22.67
2017-09-21T04:41:04.623Z,27.27
2017-09-21T04:46:07.820Z,22.80
2017-09-21T04:51:11.027Z,25.97
2017-09-21T04:56:14.207Z,26.23
2017-09-21T05:01:18.189Z,22.90
2017-09-21T05:06:21.398Z,27.77
2017-09-21T05:11:24.631Z,30.50
2017-09-21T05:16:27.934Z,25.00
2017-09-21T05:21:31.174Z,26.70
2017-09-21T05:26:35.191Z,25.67
2017-09-21T05:31:39.336Z,22.70
2017-09-21T05:36:42.535Z,21.47
2017-09-21T05:41:45.728Z,21.33
2017-09-21T05:46:49.841Z,30.03
2017-09-21T05:51:53.279Z,33.50
2017-09-21T05:56:56.679Z,30.27
2017-09-21T06:02:00.075Z,28.63
2017-09-21T06:07:03.292Z,28.07
2017-09-21T06:12:07.395Z,28.80
2017-09-21T06:17:10.680Z,23.60
2017-09-21T06:22:13.906Z,31.60
2017-09-21T06:27:17.114Z,26.70
2017-09-21T06:32:20.325Z,27.30
2017-09-21T06:37:23.523Z,24.90
2017-09-21T06:42:26.729Z,28.47
2017-09-21T06:47:29.957Z,28.90
2017-09-21T06:52:33.154Z,31.63
2017-09-21T06:57:36.369Z,31.00
2017-09-21T07:02:39.577Z,26.70
2017-09-21T07:07:42.808Z,29.70
2017-09-21T07:12:46.774Z,27.70
2017-09-21T07:17:49.976Z,32.47
2017-09-21T07:22:53.173Z,27.20
2017-09-21T07:27:56.453Z,27.57
2017-09-21T07:33:00.420Z,28.47
2017-09-21T07:38:03.642Z,26.37
2017-09-21T07:43:06.889Z,24.57
2017-09-21T07:48:10.879Z,24.33
2017-09-21T07:53:14.085Z,27.20
2017-09-21T07:58:17.291Z,28.17
2017-09-21T08:03:20.501Z,26.47
2017-09-21T08:08:23.708Z,27.60
2017-09-21T08:13:26.941Z,25.87
2017-09-21T08:18:30.917Z,28.20
2017-09-21T08:23:34.142Z,28.43
2017-09-21T08:28:37.352Z,24.70
2017-09-21T08:33:40.564Z,28.30
2017-09-21T08:38:43.780Z,31.10
2017-09-21T08:43:46.981Z,34.33
2017-09-21T08:48:50.206Z,33.27
2017-09-21T08:53:54.178Z,36.27
2017-09-21T08:58:57.383Z,32.47
2017-09-21T09:04:00.584Z,35.70
2017-09-21T09:09:03.805Z,38.80
2017-09-21T09:14:07.019Z,36.97
2017-09-21T09:19:10.260Z,34.90
2017-09-21T09:24:13.528Z,34.73
2017-09-21T09:29:16.753Z,35.93
2017-09-21T09:34:20.161Z,35.10
2017-09-21T09:39:23.413Z,33.23
2017-09-21T09:44:27.432Z,36.23
2017-09-21T09:49:31.464Z,39.77
2017-09-21T09:54:35.453Z,37.23
2017-09-21T09:59:38.721Z,41.90
2017-09-21T10:04:41.965Z,38.30
2017-09-21T10:09:45.316Z,35.83
2017-09-21T10:14:48.549Z,32.10
2017-09-21T10:19:51.890Z,37.90
2017-09-21T10:24:55.108Z,36.90
2017-09-21T10:29:58.313Z,35.93
2017-09-21T10:35:01.512Z,35.53
2017-09-21T10:40:04.725Z,35.50
2017-09-21T10:45:07.937Z,33.50
2017-09-21T10:50:11.162Z,36.80
2017-09-21T10:55:15.154Z,32.63
2017-09-21T11:00:18.404Z,35.93
2017-09-21T11:05:22.388Z,34.63
2017-09-21T11:10:25.597Z,35.27
2017-09-21T11:15:28.822Z,35.10
2017-09-21T11:20:32.091Z,33.63
2017-09-21T11:25:35.315Z,33.10
2017-09-21T11:30:38.570Z,33.57
2017-09-21T11:35:42.529Z,34.23
2017-09-21T11:40:45.762Z,36.97
2017-09-21T11:45:48.967Z,32.40
2017-09-21T11:50:52.183Z,31.07
2017-09-21T11:55:55.390Z,30.57
2017-09-21T12:00:58.628Z,31.03
2017-09-21T12:06:02.616Z,28.70
2017-09-21T12:11:05.884Z,25.17
2017-09-21T12:16:09.085Z,23.17
2017-09-21T12:21:12.312Z,21.43
2017-09-21T12:26:15.531Z,17.00
2017-09-21T12:31:18.757Z,16.23
2017-09-21T12:36:21.965Z,16.30
2017-09-21T12:41:25.192Z,14.07
2017-09-21T12:46:28.402Z,15.73
2017-09-21T12:51:32.399Z,13.13
2017-09-21T12:56:35.707Z,11.67
2017-09-21T13:01:38.910Z,11.87
2017-09-21T13:06:42.164Z,10.23
2017-09-21T13:11:45.399Z,10.77
2017-09-21T13:16:48.631Z,9.80
2017-09-21T13:21:51.860Z,9.97
2017-09-21T13:26:55.098Z,9.57
2017-09-21T13:31:59.101Z,8.87
2017-09-21T13:37:03.076Z,8.30
2017-09-21T13:42:06.308Z,8.37
2017-09-21T13:47:09.520Z,7.90
2017-09-21T13:52:12.745Z,8.27
2017-09-21T13:57:15.938Z,6.80
2017-09-21T14:02:19.156Z,7.07
2017-09-21T14:07:22.387Z,7.70
2017-09-21T14:12:25.624Z,7.40
2017-09-21T14:17:28.842Z,8.27
2017-09-21T14:22:32.184Z,8.00
2017-09-21T14:27:35.401Z,6.67
2017-09-21T14:32:38.557Z,6.45
2017-09-21T14:37:41.766Z,5.37
2017-09-21T14:42:44.971Z,6.33
2017-09-21T14:47:48.208Z,6.50
2017-09-21T14:52:51.417Z,7.23
2017-09-21T14:57:54.636Z,6.47
2017-09-21T15:02:57.824Z,6.67
2017-09-21T15:08:01.036Z,6.53
2017-09-21T15:13:04.278Z,7.87
2017-09-21T15:18:08.263Z,7.87
2017-09-21T15:23:16.737Z,8.57
2017-09-21T15:28:19.949Z,9.10
2017-09-21T15:33:23.164Z,7.77
2017-09-21T15:38:26.382Z,6.70
2017-09-21T15:43:29.618Z,6.83
2017-09-21T15:48:32.821Z,6.60
2017-09-21T15:53:36.041Z,7.40
2017-09-21T15:58:39.252Z,7.47
2017-09-21T16:03:42.450Z,7.90
2017-09-21T16:08:45.692Z,6.20
2017-09-21T16:13:49.673Z,7.40
2017-09-21T16:18:52.889Z,7.60
2017-09-21T16:23:56.088Z,7.30
2017-09-21T16:28:59.296Z,8.90
2017-09-21T16:34:02.534Z,7.70
2017-09-21T16:39:05.857Z,8.57
2017-09-21T16:44:09.101Z,11.00
2017-09-21T16:49:12.309Z,10.93
2017-09-21T16:54:15.540Z,10.97
2017-09-21T16:59:18.749Z,11.40
2017-09-21T17:04:22.089Z,10.80
2017-09-21T17:09:26.076Z,10.37
2017-09-21T17:14:29.299Z,10.90
2017-09-21T17:19:32.545Z,14.47
2017-09-21T17:24:35.742Z,16.03
2017-09-21T17:29:38.987Z,17.90
2017-09-21T17:34:42.240Z,18.80
2017-09-21T17:39:46.242Z,16.33
2017-09-21T17:44:49.565Z,18.20
2017-09-21T17:49:53.565Z,17.10
2017-09-21T17:54:56.957Z,16.30
2017-09-21T18:00:00.175Z,17.00
2017-09-21T18:05:03.458Z,12.50
2017-09-21T18:10:06.689Z,13.80
2017-09-21T18:15:09.919Z,15.63
2017-09-21T18:20:13.147Z,16.67
2017-09-21T18:25:17.153Z,15.30
2017-09-21T18:30:20.402Z,12.90
2017-09-21T18:35:23.650Z,13.50
2017-09-21T18:40:26.913Z,13.70
2017-09-21T18:45:30.298Z,14.10
2017-09-21T18:50:34.293Z,15.17
2017-09-21T18:55:37.518Z,13.07
2017-09-21T19:00:40.731Z,12.73
2017-09-21T19:05:44.753Z,12.23
2017-09-21T19:10:48.752Z,11.93
2017-09-21T19:15:51.988Z,13.03
2017-09-21T19:20:55.949Z,13.43
2017-09-21T19:25:59.162Z,14.57
2017-09-21T19:31:02.378Z,14.47
2017-09-21T19:36:05.601Z,14.83
2017-09-21T19:41:08.844Z,13.62
2017-09-21T19:46:12.850Z,14.90
2017-09-21T19:51:16.062Z,14.80
2017-09-21T19:56:20.086Z,14.07
2017-09-21T20:01:23.319Z,14.07
2017-09-21T20:06:26.562Z,13.47
2017-09-21T20:11:29.807Z,13.80
2017-09-21T20:16:33.789Z,13.63
2017-09-21T20:21:37.808Z,15.33
2017-09-21T20:26:41.036Z,14.07
2017-09-21T20:31:44.271Z,15.50
2017-09-21T20:36:48.246Z,14.10
2017-09-21T20:41:51.490Z,15.17
2017-09-21T20:46:54.696Z,15.63
2017-09-21T20:51:57.901Z,14.63
2017-09-21T20:57:01.135Z,14.80
2017-09-21T21:02:05.159Z,14.23
2017-09-21T21:07:08.377Z,14.00
2017-09-21T21:12:11.583Z,13.67
2017-09-21T21:17:14.801Z,14.03
2017-09-21T21:22:18.040Z,14.23
2017-09-21T21:27:21.257Z,13.23
2017-09-21T21:32:24.465Z,14.63
2017-09-21T21:37:27.698Z,14.10
2017-09-21T21:42:30.934Z,15.57
2017-09-21T21:47:34.145Z,13.93
2017-09-21T21:52:37.389Z,14.53
2017-09-21T21:57:40.614Z,15.60
2017-09-21T22:02:44.597Z,13.70
2017-09-21T22:07:47.818Z,14.33
2017-09-21T22:12:51.034Z,13.80
2017-09-21T22:17:54.241Z,13.33
2017-09-21T22:22:57.474Z,14.50
2017-09-21T22:28:01.441Z,14.57
2017-09-21T22:33:04.718Z,15.87
2017-09-21T22:38:07.928Z,15.37
2017-09-21T22:43:11.141Z,14.13
2017-09-21T22:48:14.389Z,14.00
2017-09-21T22:53:17.606Z,14.35
2017-09-21T22:58:20.815Z,12.83
2017-09-21T23:03:24.053Z,14.50
2017-09-21T23:08:28.057Z,14.23
2017-09-21T23:13:31.260Z,15.07
2017-09-21T23:18:34.476Z,14.97
2017-09-21T23:23:38.459Z,14.77
2017-09-21T23:28:41.725Z,14.00
2017-09-21T23:33:45.688Z,14.97
2017-09-21T23:38:48.919Z,15.30
2017-09-21T23:43:52.124Z,14.67
2017-09-21T23:48:55.435Z,15.55
2017-09-21T23:53:58.880Z,15.70
2017-09-21T23:59:02.841Z,15.40
